Midlothian, IL (60445)

08:58 CDT le 02 septembre 2014 (GMT -0500)
151st & Central Ave. | Change Station
CLOSE
Current Station
Stations météorologiques personnelles
Location: Oak Forest, IL
Altitude: 645 ft
Stations météo à proximité

Alt. 645 ft 41.62 °N, 87.76 °W | Updated 4 seconds ago

Partiellement nuageux
Partiellement nuageux
72.1 ° F
Paraît 72 ° F
N
0.0
Vent Variable Vent de SO
Gusts 1.6 mph

Aujourd'hui
Haut(e) -- | Bas -- ° F
--% Risque de précip.
Hier
Haut(e) -- | Bas -- ° F
Precip. -- pouce
6:17 AM 7:22 PM
Premier quartier, 51% visible
Pression 29.86 pouce
Visibilité 10.0 Miles terrestres
Nuages Peu 2000 ft
Peu 4000 ft
Nuages épars 15000 ft
Nuageux 30000 ft
indice de chaleur 72 ° F
Point de rosée 66 ° F
Humidité 82%
Précipitations 0.00 pouce
Profondeur de la couche neigeuse Non disponible.
UV 1 sur 12
Pollen 9.30 sur 12
Ozone Bon
PM2.5 Bon
Flu Activity Non disponible.
METAR KMDW 021351Z 30003KT 10SM FEW020 FEW040 SCT150 BKN300 24/19 A2988 RMK AO2 SLP110 T02390189 $

More Conditions Fewer Conditions

Pression 29.86 pouce
Visibilité 10.0 Miles terrestres
Nuages Peu 2000 ft
Peu 4000 ft
Nuages épars 15000 ft
Nuageux 30000 ft
indice de chaleur 72 ° F
Point de rosée 66 ° F
Humidité 82%
Précipitations 0.00 pouce
Profondeur de la couche neigeuse Non disponible.
UV 1 sur 12
Pollen 9.30 sur 12
Ozone Bon
PM2.5 Bon
Flu Activity Non disponible.
METAR KMDW 021351Z 30003KT 10SM FEW020 FEW040 SCT150 BKN300 24/19 A2988 RMK AO2 SLP110 T02390189 $

More Conditions Fewer Conditions

10-Day Weather Forecast

Almanac

Astronomie

Sep. 02, 2014 Lever Coucher
Temps réel 06:17 CDT 19:22 CDT
Crépuscule civil 05:49 CDT 19:50 CDT
Crépuscule nautique 05:15 CDT 20:24 CDT
Crépuscule astronomique 04:39 CDT 21:00 CDT
Lune 14:07 CDT Pas de coucher de lune
Durée de lumière visible 14h 01m
Longueur du jour
13h 04m
Tomorrow will be 2m 41s shorter.
Premier quartier, 51% of the Moon is Illuminated
Aujourd'hui
Premier quartier
Sep 8
Pleine lune
Sep 15
Dernier quartier
Sep 24
Nouveau
Oct 1
Premier quartier

Extrêmes aujourd'hui

State Highs State Lows

Community

WunderPhotos

Upload Photos

1,749,656 Photos téléchargées !

Nearby

Qualité de l'air

  Qualité de l'air Indice de la qualité de l'air Polluant
Hier Bon
PM2.5
Hier Bon
OZONE
Actuel Bon
PM2.5
Actuel Bon
OZONE
mardi Bon
OZONE
mardi Bon
PM2.5

Épaisseur de neige

Station Depth Altitude
Pas de nouvelles chutes de neige

Activité sismique

Ville Distance Mag. Time & Date
No recent earthquake activity has been reported nearby.
Minimum magnitude displayed is 2.5.

Températures des eaux côtières

Lieu Température
Aucun rapport de station

Stations météo à proximité